Time;durP1;ratioP1;P1;durP2;ratioP2;P2;SDS_P1;SDS_P2;PMS_P1;PMS_P2;Temp;Humidity;BMP_temperature;BMP_pressure;BME280_temperature;BME280_humidity;BME280_pressure;Samples;Min_cycle;Max_cycle;Signal;HPM_P1;HPM_P2
2023/12/06 00:01:41;;;;;;;70.88;37.30;;;0.60;99.90;;;;;;4994623;28;20137;-58
2023/12/06 00:04:07;;;;;;;61.08;35.22;;;0.60;99.90;;;;;;4994705;28;20049;-58
2023/12/06 00:06:33;;;;;;;65.93;36.80;;;0.60;99.90;;;;;;4993947;28;20042;-52
2023/12/06 00:08:59;;;;;;;67.13;36.30;;;0.60;99.90;;;;;;4991536;28;20650;-55
2023/12/06 00:11:25;;;;;;;63.53;34.80;;;0.60;99.90;;;;;;4993525;28;20100;-55
2023/12/06 00:13:51;;;;;;;62.35;35.42;;;0.60;99.90;;;;;;4981390;28;20418;-54
2023/12/06 00:16:17;;;;;;;63.42;35.22;;;0.60;99.90;;;;;;4992033;28;20061;-59
2023/12/06 00:18:45;;;;;;;66.47;35.80;;;0.60;99.90;;;;;;4977047;28;20046;-56
2023/12/06 00:21:11;;;;;;;69.13;35.85;;;0.60;99.90;;;;;;4977390;28;20052;-57
2023/12/06 00:23:36;;;;;;;68.93;37.10;;;0.60;99.90;;;;;;4991026;28;20046;-55
2023/12/06 00:26:02;;;;;;;69.45;37.10;;;0.60;99.90;;;;;;4990700;28;20042;-54
2023/12/06 00:28:28;;;;;;;64.07;36.55;;;0.60;99.90;;;;;;4990277;28;20138;-55
2023/12/06 00:30:53;;;;;;;66.65;36.80;;;0.60;99.90;;;;;;4991250;28;20038;-52
2023/12/06 00:33:19;;;;;;;66.95;36.72;;;0.60;99.90;;;;;;4989171;28;20050;-56
2023/12/06 00:35:45;;;;;;;66.43;36.40;;;0.60;99.90;;;;;;4987616;28;20485;-58
2023/12/06 00:38:11;;;;;;;69.53;38.20;;;0.60;99.90;;;;;;4979309;28;20133;-56
2023/12/06 00:40:36;;;;;;;66.68;36.03;;;0.60;99.90;;;;;;4971511;28;20068;-54
2023/12/06 00:43:06;;;;;;;65.00;36.15;;;0.60;99.90;;;;;;4997150;28;20534;-59
2023/12/06 00:45:32;;;;;;;66.90;36.78;;;0.60;99.90;;;;;;4997328;28;20038;-52
2023/12/06 00:47:58;;;;;;;66.57;36.78;;;0.60;99.90;;;;;;4990069;28;20578;-57
2023/12/06 00:50:23;;;;;;;64.22;35.88;;;0.70;99.90;;;;;;4997135;28;20041;-58
2023/12/06 00:52:49;;;;;;;64.47;35.97;;;0.60;99.90;;;;;;4995397;28;20636;-58
2023/12/06 00:55:15;;;;;;;65.93;36.70;;;0.60;99.90;;;;;;4998401;28;20402;-58
2023/12/06 00:57:41;;;;;;;72.97;37.22;;;0.60;99.90;;;;;;4998535;28;20596;-55
2023/12/06 01:00:08;;;;;;;63.63;34.47;;;0.70;99.90;;;;;;4983233;28;20057;-55
2023/12/06 01:02:34;;;;;;;68.18;34.20;;;0.70;99.90;;;;;;4994596;28;20455;-57
2023/12/06 01:05:00;;;;;;;64.45;35.65;;;0.70;99.90;;;;;;4996812;28;20045;-52
2023/12/06 01:07:26;;;;;;;68.30;36.35;;;0.70;99.90;;;;;;4996656;28;20046;-57
2023/12/06 01:09:52;;;;;;;62.33;34.65;;;0.70;99.90;;;;;;4997323;28;20120;-57
2023/12/06 01:12:19;;;;;;;57.90;34.20;;;0.70;99.90;;;;;;4996894;28;20049;-55
2023/12/06 01:14:45;;;;;;;60.95;33.47;;;0.70;99.90;;;;;;4995926;28;20059;-57
2023/12/06 01:17:11;;;;;;;58.63;33.50;;;0.70;99.90;;;;;;4993446;28;20060;-59
2023/12/06 01:19:37;;;;;;;60.38;32.95;;;0.60;99.90;;;;;;4976414;28;20430;-56
2023/12/06 01:22:02;;;;;;;60.38;33.25;;;0.70;99.90;;;;;;4994667;28;20125;-50
2023/12/06 01:24:28;;;;;;;61.35;33.88;;;0.70;99.90;;;;;;4995752;28;20127;-58
2023/12/06 01:26:54;;;;;;;59.53;32.70;;;0.70;99.90;;;;;;4992431;28;20398;-53
2023/12/06 01:29:19;;;;;;;56.28;32.28;;;0.70;99.90;;;;;;4993955;28;20050;-57
2023/12/06 01:31:45;;;;;;;62.22;33.13;;;0.70;99.90;;;;;;4991835;28;20492;-54
2023/12/06 01:34:11;;;;;;;54.60;31.42;;;0.70;99.90;;;;;;4990501;28;20042;-57
2023/12/06 01:36:37;;;;;;;57.85;32.58;;;0.70;99.90;;;;;;4994523;28;20525;-54
2023/12/06 01:39:03;;;;;;;57.88;30.75;;;0.70;99.90;;;;;;4992580;28;20038;-58
2023/12/06 01:41:29;;;;;;;49.58;30.20;;;0.70;99.90;;;;;;4971802;28;20046;-58
2023/12/06 01:43:54;;;;;;;52.47;30.33;;;0.70;99.90;;;;;;4990124;28;20049;-58
2023/12/06 01:46:20;;;;;;;53.08;30.00;;;0.70;99.90;;;;;;4990248;28;20045;-58
2023/12/06 01:48:48;;;;;;;52.35;30.33;;;0.70;99.90;;;;;;4986953;28;20045;-53
2023/12/06 01:51:17;;;;;;;52.00;30.15;;;0.80;99.90;;;;;;4986077;28;20037;-58
2023/12/06 01:53:43;;;;;;;51.53;29.67;;;0.70;99.90;;;;;;4986544;28;20570;-58
2023/12/06 01:56:10;;;;;;;45.58;28.58;;;0.70;99.90;;;;;;4987413;28;20049;-58
2023/12/06 01:58:39;;;;;;;46.78;28.27;;;0.80;99.90;;;;;;4988917;28;20045;-57
2023/12/06 02:01:05;;;;;;;48.95;29.45;;;0.80;99.90;;;;;;4995830;28;20041;-55
2023/12/06 02:03:33;;;;;;;48.22;28.83;;;0.80;99.90;;;;;;4999961;28;20054;-58
2023/12/06 02:06:00;;;;;;;45.25;26.98;;;0.80;99.90;;;;;;4997539;28;20041;-54
2023/12/06 02:08:26;;;;;;;45.22;28.35;;;0.80;99.90;;;;;;4994273;28;20084;-55
2023/12/06 02:10:52;;;;;;;44.63;28.25;;;0.80;99.90;;;;;;4981716;28;20045;-58
2023/12/06 02:13:18;;;;;;;45.92;27.73;;;0.80;99.90;;;;;;4995270;28;20045;-58
2023/12/06 02:15:45;;;;;;;47.90;28.38;;;0.80;99.90;;;;;;4997389;28;20414;-56
2023/12/06 02:18:11;;;;;;;41.88;26.85;;;0.80;99.90;;;;;;4994789;28;20061;-58
2023/12/06 02:20:37;;;;;;;45.67;27.55;;;0.80;99.90;;;;;;4997711;28;20046;-53
2023/12/06 02:23:04;;;;;;;40.53;26.65;;;0.80;99.90;;;;;;4981602;28;20403;-55
2023/12/06 02:25:30;;;;;;;40.47;26.15;;;0.80;99.90;;;;;;4993924;28;20061;-54
2023/12/06 02:27:57;;;;;;;46.55;27.15;;;0.90;99.90;;;;;;4993214;28;20045;-55
2023/12/06 02:30:23;;;;;;;42.53;26.55;;;0.90;99.90;;;;;;4995007;28;20245;-57
2023/12/06 02:32:49;;;;;;;42.05;25.73;;;0.90;99.90;;;;;;4978877;28;20081;-53
2023/12/06 02:35:23;;;;;;;37.67;24.15;;;0.90;99.90;;;;;;4991681;28;20092;-57
2023/12/06 02:37:53;;;;;;;40.80;25.42;;;0.90;99.90;;;;;;4993927;28;20052;-57
2023/12/06 02:40:21;;;;;;;38.25;24.45;;;0.90;99.90;;;;;;4993172;28;20050;-53
2023/12/06 02:42:47;;;;;;;38.17;24.20;;;0.90;99.90;;;;;;4997317;28;20082;-55
2023/12/06 02:45:13;;;;;;;35.80;23.75;;;0.90;99.90;;;;;;4989972;28;20551;-54
2023/12/06 02:47:39;;;;;;;33.25;22.42;;;0.90;99.90;;;;;;4994507;28;20042;-54
2023/12/06 02:50:05;;;;;;;36.70;23.27;;;0.90;99.90;;;;;;4993448;28;20049;-56
2023/12/06 02:52:31;;;;;;;34.53;23.02;;;0.90;99.90;;;;;;4993601;28;20113;-58
2023/12/06 02:54:56;;;;;;;35.15;21.42;;;1.00;99.90;;;;;;4994530;28;20668;-53
2023/12/06 02:57:22;;;;;;;37.80;23.55;;;0.90;99.90;;;;;;4988526;28;20120;-51
2023/12/06 02:59:48;;;;;;;34.35;22.80;;;1.00;99.90;;;;;;4988944;28;20573;-58
2023/12/06 03:02:13;;;;;;;33.92;22.33;;;0.90;99.90;;;;;;4989098;28;20054;-55
2023/12/06 03:04:39;;;;;;;32.47;21.30;;;1.00;99.90;;;;;;4989033;28;20125;-57
2023/12/06 03:07:05;;;;;;;32.50;21.00;;;0.90;99.90;;;;;;4987295;28;20053;-55
2023/12/06 03:09:30;;;;;;;30.70;21.17;;;0.90;99.90;;;;;;4988267;28;20069;-56
2023/12/06 03:11:56;;;;;;;30.15;19.92;;;0.90;99.90;;;;;;4986618;28;20087;-56
2023/12/06 03:14:22;;;;;;;27.08;18.80;;;1.00;99.90;;;;;;4986959;28;20042;-54
2023/12/06 03:16:48;;;;;;;26.70;18.55;;;0.90;99.90;;;;;;4984067;28;20048;-55
2023/12/06 03:19:13;;;;;;;27.33;17.90;;;0.90;99.90;;;;;;4968650;28;20668;-58
2023/12/06 03:21:39;;;;;;;23.52;17.25;;;1.00;99.90;;;;;;5000915;28;20124;-58
2023/12/06 03:24:05;;;;;;;25.13;17.77;;;0.90;99.90;;;;;;4994020;28;20053;-58
2023/12/06 03:26:31;;;;;;;26.10;17.67;;;1.00;99.90;;;;;;4996047;28;20042;-58
2023/12/06 03:28:56;;;;;;;27.33;17.52;;;1.00;99.90;;;;;;4995271;28;20072;-53
2023/12/06 03:31:22;;;;;;;24.50;16.58;;;1.00;99.90;;;;;;4999227;28;20710;-58
2023/12/06 03:33:48;;;;;;;24.10;17.05;;;1.00;99.90;;;;;;5003826;28;20053;-55
2023/12/06 03:36:14;;;;;;;29.98;18.30;;;1.00;99.90;;;;;;4998353;28;20057;-53
2023/12/06 03:38:40;;;;;;;28.83;18.67;;;1.00;99.90;;;;;;5001990;28;20530;-58
2023/12/06 03:41:06;;;;;;;26.63;18.15;;;1.00;99.90;;;;;;4999841;28;20570;-53
2023/12/06 03:43:32;;;;;;;29.75;18.98;;;1.00;99.90;;;;;;5003712;28;20050;-58
2023/12/06 03:45:58;;;;;;;28.02;19.80;;;1.00;99.90;;;;;;4999304;28;20038;-57
2023/12/06 03:48:23;;;;;;;30.80;19.90;;;1.00;99.90;;;;;;4997759;28;20463;-57
2023/12/06 03:50:49;;;;;;;30.83;20.58;;;1.00;99.90;;;;;;4998354;28;20034;-59
2023/12/06 03:53:15;;;;;;;30.52;19.75;;;1.00;99.90;;;;;;4995871;28;20033;-55
2023/12/06 03:55:40;;;;;;;28.70;19.05;;;1.00;99.90;;;;;;4999362;28;20077;-58
2023/12/06 03:58:06;;;;;;;28.88;19.77;;;1.00;99.90;;;;;;4998956;28;20383;-52
2023/12/06 04:00:32;;;;;;;27.98;19.35;;;1.00;99.90;;;;;;4993497;28;20581;-59
2023/12/06 04:02:58;;;;;;;28.50;18.83;;;1.00;99.90;;;;;;4991363;28;20038;-51
2023/12/06 04:05:24;;;;;;;27.67;19.02;;;1.00;99.90;;;;;;4994522;28;20054;-58
2023/12/06 04:07:49;;;;;;;27.08;18.38;;;1.00;99.90;;;;;;4993989;28;20137;-57
2023/12/06 04:10:15;;;;;;;25.88;17.60;;;1.00;99.90;;;;;;4993420;28;20042;-54
2023/12/06 04:12:41;;;;;;;25.77;17.70;;;1.00;99.90;;;;;;4993038;28;20500;-58
2023/12/06 04:15:07;;;;;;;26.83;17.48;;;1.00;99.90;;;;;;4999616;28;20556;-58
2023/12/06 04:17:33;;;;;;;28.10;17.35;;;1.00;99.90;;;;;;4995232;28;20045;-59
2023/12/06 04:19:58;;;;;;;22.95;16.30;;;1.00;99.90;;;;;;5002150;28;20042;-56
2023/12/06 04:22:24;;;;;;;25.40;17.30;;;1.00;99.90;;;;;;4999256;28;20042;-58
2023/12/06 04:24:50;;;;;;;23.90;16.90;;;1.00;99.90;;;;;;5001000;28;20491;-56
2023/12/06 04:27:15;;;;;;;23.60;16.40;;;1.00;99.90;;;;;;4998913;28;20052;-52
2023/12/06 04:29:41;;;;;;;22.80;16.52;;;1.00;99.90;;;;;;4998551;28;20030;-54
2023/12/06 04:32:07;;;;;;;22.42;16.17;;;1.00;99.90;;;;;;4996412;28;20395;-55
2023/12/06 04:34:45;;;;;;;22.88;16.17;;;1.00;99.90;;;;;;4996672;28;20152;-56
2023/12/06 04:37:11;;;;;;;23.10;15.82;;;1.00;99.90;;;;;;4997324;28;20050;-52
2023/12/06 04:39:37;;;;;;;25.90;16.15;;;1.00;99.90;;;;;;4995250;28;20493;-55
2023/12/06 04:42:03;;;;;;;23.08;15.50;;;1.00;99.90;;;;;;4973386;28;20148;-57
2023/12/06 04:44:29;;;;;;;23.05;15.88;;;1.00;99.90;;;;;;4990097;28;20097;-55
2023/12/06 04:46:54;;;;;;;22.88;15.35;;;1.00;99.90;;;;;;4990709;28;20050;-58
2023/12/06 04:49:20;;;;;;;24.10;16.08;;;1.00;99.90;;;;;;4990257;28;20053;-55
2023/12/06 04:51:46;;;;;;;21.73;15.27;;;1.10;99.90;;;;;;4991307;28;20393;-58
2023/12/06 04:54:11;;;;;;;22.55;15.98;;;1.10;99.90;;;;;;4987971;28;20101;-56
2023/12/06 04:56:37;;;;;;;24.65;16.15;;;1.10;99.90;;;;;;4987727;28;20133;-59
2023/12/06 04:59:03;;;;;;;22.95;15.90;;;1.00;99.90;;;;;;4993809;28;20045;-54
2023/12/06 05:01:28;;;;;;;23.27;16.25;;;1.00;99.90;;;;;;4999933;28;20046;-57
2023/12/06 05:03:55;;;;;;;22.15;16.85;;;1.10;99.90;;;;;;4999077;28;20038;-53
2023/12/06 05:06:20;;;;;;;25.95;17.15;;;1.10;99.90;;;;;;4996495;28;20983;-55
2023/12/06 05:08:46;;;;;;;24.63;16.45;;;1.10;99.90;;;;;;4994066;28;20042;-58
2023/12/06 05:11:12;;;;;;;24.58;16.83;;;1.00;99.90;;;;;;4996844;28;20041;-52
2023/12/06 05:13:37;;;;;;;27.33;17.02;;;1.10;99.90;;;;;;4978720;28;20616;-58
2023/12/06 05:16:03;;;;;;;26.40;15.95;;;1.10;99.90;;;;;;4996502;28;20573;-57
2023/12/06 05:18:29;;;;;;;26.38;16.15;;;1.10;99.90;;;;;;4991993;28;20427;-54
2023/12/06 05:20:55;;;;;;;24.80;16.17;;;1.10;99.90;;;;;;4994004;28;20497;-59
2023/12/06 05:23:20;;;;;;;23.88;16.48;;;1.10;99.90;;;;;;4994060;28;20050;-57
2023/12/06 05:25:46;;;;;;;24.02;15.45;;;1.10;99.90;;;;;;4992723;28;20042;-55
2023/12/06 05:28:12;;;;;;;22.73;16.02;;;1.10;99.90;;;;;;4992382;28;20047;-58
2023/12/06 05:30:38;;;;;;;25.92;16.00;;;1.10;99.90;;;;;;4982968;28;20519;-54
2023/12/06 05:33:04;;;;;;;20.13;15.43;;;1.10;99.90;;;;;;4986339;28;20122;-50
2023/12/06 05:35:30;;;;;;;21.40;15.68;;;1.10;99.90;;;;;;4988774;28;20686;-58
2023/12/06 05:37:56;;;;;;;23.23;15.75;;;1.10;99.90;;;;;;4986232;28;20579;-54
2023/12/06 05:40:22;;;;;;;24.95;15.30;;;1.10;99.90;;;;;;4990049;28;20080;-54
2023/12/06 05:42:47;;;;;;;20.90;14.07;;;1.10;99.90;;;;;;4969966;28;20045;-55
2023/12/06 05:45:14;;;;;;;20.60;14.70;;;1.10;99.90;;;;;;4993396;28;20088;-59
2023/12/06 05:47:40;;;;;;;24.20;15.35;;;1.10;99.90;;;;;;4994220;28;20077;-58
2023/12/06 05:50:06;;;;;;;23.83;15.55;;;1.10;99.90;;;;;;4996932;28;20447;-57
2023/12/06 05:52:33;;;;;;;21.45;15.52;;;1.10;99.90;;;;;;4997593;28;20092;-52
2023/12/06 05:54:59;;;;;;;23.83;16.30;;;1.10;99.90;;;;;;4991933;28;20658;-53
2023/12/06 05:57:25;;;;;;;21.30;14.85;;;1.10;99.90;;;;;;4979686;28;20108;-58
2023/12/06 05:59:51;;;;;;;22.30;15.82;;;1.20;99.90;;;;;;4997419;28;20561;-56
2023/12/06 06:02:17;;;;;;;25.20;15.75;;;1.20;99.90;;;;;;4993077;28;20516;-58
2023/12/06 06:04:43;;;;;;;23.40;15.32;;;1.20;99.90;;;;;;4993477;28;20096;-58
2023/12/06 06:07:08;;;;;;;21.98;15.27;;;1.20;99.90;;;;;;4994081;28;20045;-55
2023/12/06 06:09:35;;;;;;;21.30;15.52;;;1.20;99.90;;;;;;4995564;28;20049;-59
2023/12/06 06:12:01;;;;;;;22.17;15.48;;;1.20;99.90;;;;;;4990679;28;20474;-54
2023/12/06 06:14:26;;;;;;;25.20;15.63;;;1.20;99.90;;;;;;4990092;28;20621;-58
2023/12/06 06:16:52;;;;;;;24.98;15.50;;;1.20;99.90;;;;;;4988957;28;20502;-52
2023/12/06 06:19:18;;;;;;;21.08;14.73;;;1.20;99.90;;;;;;4990391;28;20501;-51
2023/12/06 06:21:44;;;;;;;23.27;15.52;;;1.20;99.90;;;;;;4985412;28;20216;-54
2023/12/06 06:24:09;;;;;;;20.98;15.15;;;1.20;99.90;;;;;;4987246;28;20038;-58
2023/12/06 06:26:35;;;;;;;23.45;15.20;;;1.20;99.90;;;;;;4989454;28;20112;-58
2023/12/06 06:29:01;;;;;;;22.42;15.63;;;1.30;99.90;;;;;;4990214;28;20113;-55
2023/12/06 06:31:27;;;;;;;20.70;14.98;;;1.30;99.90;;;;;;4983229;28;20064;-58
2023/12/06 06:33:53;;;;;;;21.55;14.38;;;1.30;99.90;;;;;;4987199;28;20121;-58
2023/12/06 06:36:18;;;;;;;20.92;13.98;;;1.30;99.90;;;;;;4983443;28;20493;-56
2023/12/06 06:38:45;;;;;;;22.48;14.40;;;1.30;99.90;;;;;;4984220;28;20040;-57
2023/12/06 06:41:10;;;;;;;18.17;13.43;;;1.30;99.90;;;;;;4985814;28;20129;-55
2023/12/06 06:43:37;;;;;;;18.88;13.73;;;1.30;99.90;;;;;;4995944;28;20152;-52
2023/12/06 06:46:02;;;;;;;19.27;14.48;;;1.30;99.90;;;;;;4993548;28;20041;-59
2023/12/06 06:48:28;;;;;;;19.50;13.98;;;1.30;99.90;;;;;;4992469;28;20573;-59
2023/12/06 06:50:54;;;;;;;18.42;13.85;;;1.30;99.90;;;;;;4994973;28;20049;-58
2023/12/06 06:53:19;;;;;;;19.58;14.10;;;1.30;99.90;;;;;;4992179;28;20049;-58
2023/12/06 06:55:45;;;;;;;23.08;14.70;;;1.30;99.90;;;;;;4991420;28;20048;-56
2023/12/06 06:58:11;;;;;;;19.98;15.18;;;1.30;99.90;;;;;;4985771;28;20529;-55
2023/12/06 07:00:36;;;;;;;21.05;14.20;;;1.30;99.90;;;;;;4983520;28;20054;-56
2023/12/06 07:03:02;;;;;;;24.85;15.43;;;1.30;99.90;;;;;;4971892;28;20723;-55
2023/12/06 07:05:28;;;;;;;22.23;15.35;;;1.40;99.90;;;;;;4991967;28;20064;-52
2023/12/06 07:07:53;;;;;;;18.65;14.88;;;1.40;99.90;;;;;;4970457;28;20060;-55
2023/12/06 07:10:20;;;;;;;21.15;15.20;;;1.40;99.90;;;;;;4994078;28;20038;-52
2023/12/06 07:12:45;;;;;;;26.02;16.70;;;1.40;99.90;;;;;;4988770;28;20092;-57
2023/12/06 07:15:14;;;;;;;25.83;16.27;;;1.40;99.90;;;;;;4989804;28;20436;-54
2023/12/06 07:17:43;;;;;;;20.83;15.43;;;1.50;99.90;;;;;;4986448;28;20111;-54
2023/12/06 07:20:11;;;;;;;22.73;16.05;;;1.50;99.90;;;;;;4984832;28;20541;-55
2023/12/06 07:22:37;;;;;;;20.92;15.05;;;1.50;99.90;;;;;;4988679;28;20048;-52
2023/12/06 07:25:05;;;;;;;22.33;15.85;;;1.50;99.90;;;;;;4984078;28;20046;-54
2023/12/06 07:27:31;;;;;;;22.73;15.15;;;1.40;99.90;;;;;;4983308;28;20055;-56
2023/12/06 07:29:57;;;;;;;21.17;14.73;;;1.50;99.90;;;;;;4980955;28;20042;-55
2023/12/06 07:32:22;;;;;;;20.73;14.50;;;1.40;99.90;;;;;;4977369;28;20076;-58
2023/12/06 07:34:48;;;;;;;19.58;14.95;;;1.40;99.90;;;;;;4984367;28;20047;-55
2023/12/06 07:37:14;;;;;;;20.90;15.13;;;1.40;99.90;;;;;;4987549;28;20033;-57
2023/12/06 07:39:40;;;;;;;21.42;15.52;;;1.40;99.90;;;;;;4984436;28;20054;-54
2023/12/06 07:42:06;;;;;;;22.17;15.57;;;1.40;99.90;;;;;;4980786;28;20077;-57
2023/12/06 07:44:32;;;;;;;22.73;15.98;;;1.40;99.90;;;;;;4985228;28;20113;-55
2023/12/06 07:46:57;;;;;;;24.20;16.17;;;1.40;99.90;;;;;;4969902;28;20035;-57
2023/12/06 07:49:23;;;;;;;23.20;16.13;;;1.50;99.90;;;;;;4992058;28;20041;-58
2023/12/06 07:51:52;;;;;;;19.92;15.68;;;1.50;99.90;;;;;;4997643;28;20038;-52
2023/12/06 07:54:19;;;;;;;19.38;14.82;;;1.50;99.90;;;;;;4997938;28;20030;-58
2023/12/06 07:56:44;;;;;;;20.75;15.40;;;1.50;99.90;;;;;;4990310;28;20077;-57
2023/12/06 07:59:10;;;;;;;23.45;16.23;;;1.50;99.90;;;;;;4992176;28;20140;-56
2023/12/06 08:01:36;;;;;;;21.60;16.30;;;1.50;99.90;;;;;;4993345;28;20042;-53
2023/12/06 08:04:02;;;;;;;24.20;16.30;;;1.50;99.90;;;;;;4977318;28;20626;-50
2023/12/06 08:06:28;;;;;;;21.77;15.93;;;1.50;99.90;;;;;;4994584;28;20446;-54
2023/12/06 08:08:54;;;;;;;20.23;15.60;;;1.50;99.90;;;;;;4995468;28;20579;-50
2023/12/06 08:11:20;;;;;;;22.83;16.63;;;1.60;99.90;;;;;;4995572;28;20064;-56
2023/12/06 08:13:47;;;;;;;26.02;16.55;;;1.50;99.90;;;;;;4990423;28;20041;-50
2023/12/06 08:16:13;;;;;;;27.50;16.58;;;1.50;99.90;;;;;;4992214;28;20519;-55
2023/12/06 08:18:39;;;;;;;22.73;16.83;;;1.60;99.90;;;;;;4991774;28;20453;-53
2023/12/06 08:21:08;;;;;;;23.90;16.75;;;1.60;99.90;;;;;;4995114;28;20042;-53
2023/12/06 08:23:34;;;;;;;22.23;16.50;;;1.60;99.90;;;;;;4996383;28;20077;-51
2023/12/06 08:26:00;;;;;;;22.67;16.30;;;1.60;99.90;;;;;;4982961;28;20542;-51
2023/12/06 08:28:26;;;;;;;24.83;16.10;;;1.60;99.90;;;;;;4992274;28;20045;-53
2023/12/06 08:30:51;;;;;;;22.52;16.63;;;1.60;99.90;;;;;;4972236;28;20540;-53
2023/12/06 08:33:19;;;;;;;23.65;16.45;;;1.70;99.90;;;;;;4991646;28;20070;-55
2023/12/06 08:35:45;;;;;;;21.35;15.95;;;1.70;99.90;;;;;;4989310;28;20046;-53
2023/12/06 08:38:11;;;;;;;24.20;15.70;;;1.80;99.90;;;;;;4990331;28;20050;-49
2023/12/06 08:40:37;;;;;;;21.15;15.40;;;1.80;99.90;;;;;;4988876;28;20125;-51
2023/12/06 08:43:03;;;;;;;21.88;15.30;;;1.80;99.90;;;;;;4967833;28;20046;-52
2023/12/06 08:45:29;;;;;;;21.13;15.52;;;1.80;99.90;;;;;;4980252;28;20042;-55
2023/12/06 08:47:54;;;;;;;21.77;14.55;;;1.90;99.90;;;;;;4982962;28;20030;-53
2023/12/06 08:50:21;;;;;;;20.63;14.93;;;1.80;99.90;;;;;;5002743;28;20465;-54
2023/12/06 08:52:47;;;;;;;18.08;14.07;;;1.80;99.90;;;;;;5001492;28;20053;-53
2023/12/06 08:55:13;;;;;;;18.35;13.82;;;1.80;99.90;;;;;;4998834;28;20046;-52
2023/12/06 08:57:39;;;;;;;20.33;13.82;;;1.90;99.90;;;;;;4980112;28;20056;-53
2023/12/06 09:00:07;;;;;;;23.30;13.98;;;1.90;99.90;;;;;;4996486;28;20060;-49
2023/12/06 09:02:36;;;;;;;21.58;14.18;;;1.90;99.90;;;;;;4996592;28;20049;-52
2023/12/06 09:05:01;;;;;;;22.23;13.10;;;1.90;99.90;;;;;;4989316;28;20502;-49
2023/12/06 09:07:27;;;;;;;18.83;13.80;;;2.00;99.90;;;;;;4993432;28;20045;-51
2023/12/06 09:09:53;;;;;;;18.25;13.20;;;2.00;99.90;;;;;;4989446;28;20049;-53
2023/12/06 09:12:20;;;;;;;18.55;13.20;;;2.00;99.90;;;;;;4989391;28;20477;-55
2023/12/06 09:14:46;;;;;;;16.30;12.60;;;2.00;99.90;;;;;;4992969;28;20109;-49
2023/12/06 09:17:12;;;;;;;17.48;12.93;;;2.00;99.90;;;;;;4992195;28;20795;-54
2023/12/06 09:19:38;;;;;;;17.42;12.80;;;2.00;99.90;;;;;;4994000;28;20046;-52
2023/12/06 09:22:05;;;;;;;18.38;13.40;;;2.00;99.90;;;;;;4990911;28;20081;-53
2023/12/06 09:24:31;;;;;;;20.42;13.70;;;2.00;99.90;;;;;;4989968;28;20136;-48
2023/12/06 09:26:56;;;;;;;19.95;13.45;;;2.00;99.90;;;;;;4979425;28;20042;-50
2023/12/06 09:29:22;;;;;;;20.63;13.73;;;2.00;99.90;;;;;;4989516;28;20070;-51
2023/12/06 09:31:48;;;;;;;20.35;12.18;;;2.00;99.90;;;;;;4988059;28;20050;-52
2023/12/06 09:34:14;;;;;;;17.95;11.70;;;2.00;99.90;;;;;;4985117;28;20046;-54
2023/12/06 09:36:39;;;;;;;18.60;12.48;;;2.00;99.90;;;;;;4998719;28;20402;-52
2023/12/06 09:39:05;;;;;;;16.50;11.93;;;2.00;99.90;;;;;;4999449;28;20534;-54
2023/12/06 09:41:32;;;;;;;17.42;12.32;;;2.00;99.90;;;;;;4999839;28;20042;-54
2023/12/06 09:44:01;;;;;;;17.30;12.45;;;2.00;99.90;;;;;;5000389;28;20422;-53
2023/12/06 09:46:27;;;;;;;16.98;12.73;;;2.00;99.90;;;;;;4995400;28;20488;-52
2023/12/06 09:48:53;;;;;;;20.98;11.82;;;2.00;99.90;;;;;;4995021;28;20049;-52
2023/12/06 09:51:20;;;;;;;20.00;12.43;;;2.00;99.90;;;;;;4976348;28;20555;-52
2023/12/06 09:53:46;;;;;;;18.10;12.50;;;2.10;99.90;;;;;;4992737;28;20060;-50
2023/12/06 09:56:13;;;;;;;18.50;12.45;;;2.10;99.90;;;;;;4990436;28;20489;-53
2023/12/06 09:58:40;;;;;;;17.45;12.50;;;2.10;99.90;;;;;;4991186;28;20053;-55
2023/12/06 10:01:05;;;;;;;16.50;11.88;;;2.10;99.90;;;;;;4984869;28;20049;-54
2023/12/06 10:03:32;;;;;;;15.32;11.68;;;2.10;99.90;;;;;;4986811;28;20041;-55
2023/12/06 10:05:59;;;;;;;20.02;12.68;;;2.10;99.90;;;;;;4987544;28;20150;-52
2023/12/06 10:08:25;;;;;;;20.23;12.23;;;2.10;99.90;;;;;;4987956;28;21852;-49
2023/12/06 10:11:08;;;;;;;18.95;12.65;;;2.10;99.90;;;;;;4970139;28;20042;-50
2023/12/06 10:13:36;;;;;;;18.08;13.43;;;2.10;99.90;;;;;;4983428;28;20108;-51
2023/12/06 10:16:02;;;;;;;19.52;12.80;;;2.10;99.90;;;;;;4985376;28;20053;-53
2023/12/06 10:18:28;;;;;;;17.48;12.85;;;2.10;99.90;;;;;;4987069;28;20042;-50
2023/12/06 10:20:55;;;;;;;16.55;12.02;;;2.20;99.90;;;;;;4987127;28;20548;-54
2023/12/06 10:23:22;;;;;;;19.92;12.43;;;2.10;99.90;;;;;;4994176;28;20046;-48
2023/12/06 10:25:48;;;;;;;17.00;12.43;;;2.10;99.90;;;;;;4980912;28;20045;-53
2023/12/06 10:28:14;;;;;;;17.75;13.60;;;2.10;99.90;;;;;;4991123;28;20540;-51
2023/12/06 10:30:40;;;;;;;17.45;13.13;;;2.10;99.90;;;;;;4996816;28;20063;-53
2023/12/06 10:33:07;;;;;;;16.55;13.27;;;2.10;99.90;;;;;;4974342;28;20137;-51
2023/12/06 10:35:34;;;;;;;18.02;12.68;;;2.20;99.90;;;;;;4995432;28;20045;-53
2023/12/06 10:38:02;;;;;;;15.98;12.98;;;2.20;99.90;;;;;;4999039;28;20050;-53
2023/12/06 10:40:28;;;;;;;15.95;12.95;;;2.20;99.90;;;;;;4995301;28;20169;-53
2023/12/06 10:43:01;;;;;;;18.08;13.32;;;2.20;99.90;;;;;;4996004;28;20038;-54
2023/12/06 10:45:28;;;;;;;18.98;13.25;;;2.20;99.90;;;;;;4994345;28;20054;-52
2023/12/06 10:47:55;;;;;;;17.33;13.25;;;2.30;99.90;;;;;;4988007;28;20073;-53
2023/12/06 10:50:22;;;;;;;18.08;12.70;;;2.20;99.90;;;;;;4990623;28;20560;-50
2023/12/06 10:52:48;;;;;;;19.42;13.70;;;2.30;99.90;;;;;;4990131;28;20045;-53
2023/12/06 10:55:17;;;;;;;19.02;13.23;;;2.30;99.90;;;;;;4992074;28;20133;-54
2023/12/06 10:57:44;;;;;;;21.38;13.27;;;2.30;99.90;;;;;;4992294;28;20120;-56
2023/12/06 11:00:11;;;;;;;16.52;13.23;;;2.30;99.90;;;;;;4986505;28;20048;-50
2023/12/06 11:02:37;;;;;;;18.10;13.52;;;2.30;99.90;;;;;;4985989;28;20038;-51
2023/12/06 11:05:06;;;;;;;16.00;12.68;;;2.30;99.90;;;;;;4971235;28;20046;-51
2023/12/06 11:08:01;;;;;;;16.38;11.57;;;2.40;99.90;;;;;;4985251;28;20054;-54
2023/12/06 11:10:39;;;;;;;15.48;12.02;;;2.30;99.90;;;;;;4962735;28;20038;-54
2023/12/06 11:13:23;;;;;;;14.73;11.23;;;2.40;99.90;;;;;;4984144;28;20082;-53
2023/12/06 11:16:27;;;;;;;15.88;11.35;;;2.40;99.90;;;;;;4959448;28;20612;-54
2023/12/06 11:18:53;;;;;;;14.05;11.20;;;2.40;99.90;;;;;;4993029;28;20080;-52
2023/12/06 11:21:19;;;;;;;14.23;11.30;;;2.40;99.90;;;;;;4976723;28;20173;-55
2023/12/06 11:23:49;;;;;;;15.20;11.13;;;2.40;99.90;;;;;;4994024;28;21543;-53
2023/12/06 11:26:15;;;;;;;15.32;11.80;;;2.40;99.90;;;;;;4994776;28;20387;-53
2023/12/06 11:28:42;;;;;;;15.00;10.88;;;2.40;99.90;;;;;;4989754;28;20050;-53
2023/12/06 11:31:12;;;;;;;14.77;10.70;;;2.40;99.90;;;;;;4988482;28;20045;-53
2023/12/06 11:33:39;;;;;;;14.88;10.73;;;2.40;99.90;;;;;;4988006;28;20577;-52
2023/12/06 11:36:15;;;;;;;15.27;10.95;;;2.50;99.90;;;;;;4974904;28;20041;-52
2023/12/06 11:38:42;;;;;;;17.10;11.38;;;2.50;99.90;;;;;;4992326;28;20054;-49
2023/12/06 11:41:15;;;;;;;16.10;10.90;;;2.40;99.90;;;;;;4995532;28;20045;-54
2023/12/06 11:43:50;;;;;;;13.13;10.93;;;2.50;99.90;;;;;;4989890;28;20156;-52
2023/12/06 11:46:17;;;;;;;14.90;10.40;;;2.50;99.90;;;;;;4987629;28;20121;-55
2023/12/06 11:48:46;;;;;;;13.10;10.60;;;2.50;99.90;;;;;;4984780;28;20042;-55
2023/12/06 11:51:25;;;;;;;16.52;10.57;;;2.50;99.90;;;;;;4977321;28;20054;-49
2023/12/06 11:53:52;;;;;;;13.45;10.50;;;2.50;99.90;;;;;;4990496;28;20087;-55
2023/12/06 11:56:26;;;;;;;13.02;10.10;;;2.50;99.90;;;;;;4991393;28;20054;-53
2023/12/06 11:58:52;;;;;;;17.02;10.43;;;2.50;99.90;;;;;;4992635;28;20088;-56
2023/12/06 12:01:19;;;;;;;11.80;9.43;;;2.50;99.90;;;;;;4990634;28;20045;-54
2023/12/06 12:03:47;;;;;;;13.02;10.27;;;2.50;99.90;;;;;;4988628;28;20480;-49
2023/12/06 12:06:15;;;;;;;12.18;9.80;;;2.50;99.90;;;;;;4991337;28;20042;-55
2023/12/06 12:08:42;;;;;;;13.35;9.50;;;2.50;99.90;;;;;;4994290;28;20045;-56
2023/12/06 12:11:09;;;;;;;10.90;9.00;;;2.60;99.90;;;;;;5002429;28;20038;-54
2023/12/06 12:13:40;;;;;;;11.68;9.43;;;2.60;99.90;;;;;;4967242;28;20055;-55
2023/12/06 12:16:06;;;;;;;10.23;8.95;;;2.60;99.90;;;;;;4986593;28;20491;-50
2023/12/06 12:18:32;;;;;;;10.77;8.40;;;2.60;99.90;;;;;;4993305;28;20707;-50
2023/12/06 12:20:58;;;;;;;14.02;9.40;;;2.60;99.90;;;;;;4979614;28;20053;-53
2023/12/06 12:23:25;;;;;;;13.60;9.80;;;2.60;99.90;;;;;;4980836;28;20486;-49
2023/12/06 12:25:51;;;;;;;15.68;9.73;;;2.60;99.90;;;;;;4994129;28;20164;-55
2023/12/06 12:28:18;;;;;;;14.43;9.23;;;2.70;99.90;;;;;;4993285;28;20491;-56
2023/12/06 12:31:11;;;;;;;12.35;9.10;;;2.60;99.90;;;;;;4995734;28;20870;-50
2023/12/06 12:33:37;;;;;;;10.05;7.68;;;2.60;99.90;;;;;;4988188;28;20191;-52
2023/12/06 12:36:03;;;;;;;10.63;7.00;;;2.60;99.90;;;;;;4991562;28;20603;-55